Nearby METAR Reports

 

EBBR - Brussel National Airport
Distance from station: NNW 8.5km
Updated: 17/08/2018 11:50
Few Clouds
Few Clouds
 Wind van NNW
Wind: NNW 9 km/h
Temperatuur: 19°C
Dauwpunt: 13°C
Vochtigheid: 68%
Barometer: 1019 hPa
Clouds: Few Clouds
Visibility: 10 km
Cloud details: Few Clouds 792 m
2018/08/17 09:50 EBBR 170950Z 34005KT 300V030 9999 FEW026 19/13 Q1019 NOSIG